»·PEaware :: N15JG NONE-KSLC

N15JG :: NONE-KSLC

FLIGHT INFORMATION

Flight Status: Arrived
Operator: Privately registered:
United States
More flights under this callsign
Pilot: Anonymous 11047 (11047)
Aircraft: MOONEY M-20 201 202 205 220 ATS MSE
(M20P)
More flights by this aircraft type
Origin: NONE
Destination: KSLC Salt Lake City Intl
United States
More flights between these airports :: More routes between these airports
Route: +
File this flight plan on PilotEdge
Remarks:
Altitude:
(Current/Filed)
9,500ft
Speed:
(Current/Filed)
0kts
Departed: 24-Apr-18 07:35 AM
Arrived: 24-Apr-18 08:09 AM
Distance/Time
Traveled:
Not Available
Distance/Time
To Go:
Arrived

Flight Plot

Page will automatically refresh every two minutes.

Flight plan parsing failed; only flown route is shown


Map Options




Map Legend


Flown Route
Filed Route
Departure Airport
Arrival Airport
Navaid (VOR, NDB)
Fix

Horizontal Profiles

Position Reports

Time Latitude Longitude Heading Altitude Ground
Speed
24-Apr-18 07:33 40.704042 -113.565752 92 9437ft 161kts
24-Apr-18 07:34 40.700794 -113.506893 95 9455ft 161kts
24-Apr-18 07:35 40.699926 -113.447768 86 9458ft 161kts
24-Apr-18 07:36 40.707441 -113.390757 80 9533ft 159kts
24-Apr-18 07:37 40.712905 -113.338105 84 9615ft 159kts
24-Apr-18 07:38 40.713365 -113.330911 84 9632ft 159kts
24-Apr-18 07:39 40.714713 -113.314142 83 9647ft 160kts
24-Apr-18 07:40 40.725773 -113.255671 68 9546ft 164kts
24-Apr-18 07:41 40.741999 -113.198085 75 9321ft 172kts
24-Apr-18 07:42 40.745346 -113.137246 94 9405ft 162kts
24-Apr-18 07:43 40.743685 -113.078215 87 9512ft 159kts
24-Apr-18 07:44 40.748220 -113.018463 82 9475ft 163kts
24-Apr-18 07:45 40.754311 -112.958754 82 9435ft 165kts
24-Apr-18 07:46 40.753809 -112.898460 93 9450ft 164kts
24-Apr-18 07:47 40.753207 -112.837886 83 9445ft 163kts
24-Apr-18 07:48 40.759147 -112.779684 89 9533ft 163kts
24-Apr-18 07:49 40.757367 -112.728420 97 9426ft 169kts
24-Apr-18 07:50 40.751453 -112.669061 81 9640ft 158kts
24-Apr-18 07:51 40.753860 -112.608744 87 9660ft 162kts
24-Apr-18 07:52 40.757120 -112.548340 76 9596ft 169kts
24-Apr-18 07:53 40.768408 -112.486272 84 9304ft 176kts
24-Apr-18 07:54 40.755930 -112.426815 117 9426ft 168kts
24-Apr-18 07:55 40.726214 -112.380794 134 9527ft 170kts
24-Apr-18 07:56 40.701675 -112.343037 114 9354ft 178kts
24-Apr-18 07:57 40.696368 -112.299469 77 9513ft 172kts
24-Apr-18 07:58 40.719506 -112.245417 50 9356ft 172kts
24-Apr-18 07:59 40.749542 -112.195540 49 8795ft 176kts
24-Apr-18 08:00 40.777584 -112.146574 52 7936ft 171kts
24-Apr-18 08:01 40.804427 -112.095046 71 6866ft 170kts
24-Apr-18 08:02 40.806505 -112.034510 101 5845ft 164kts
24-Apr-18 08:03 40.772763 -112.015086 178 5132ft 151kts
24-Apr-18 08:04 40.740501 -112.007856 129 5214ft 101kts
24-Apr-18 08:05 40.739499 -111.973017 85 4930ft 100kts
24-Apr-18 08:06 40.759265 -111.962203 356 4496ft 80kts
24-Apr-18 08:07 40.779616 -111.962165 1 4229ft 63kts
24-Apr-18 08:08 40.782414 -111.960356 101 4229ft 12kts
24-Apr-18 08:09 40.776972 -111.958914 175 4229ft 10kts
24-Apr-18 08:10 40.776494 -111.958596 356 4229ft 0kts
24-Apr-18 08:11 40.776494 -111.958596 356 4229ft 0kts
24-Apr-18 08:12 40.776494 -111.958596 356 4229ft 0kts
24-Apr-18 08:13 40.776494 -111.958596 356 4229ft 0kts
24-Apr-18 08:14 40.776494 -111.958596 356 4229ft 0kts
24-Apr-18 08:15 40.776494 -111.958596 356 4229ft 0kts
24-Apr-18 08:16 40.776494 -111.958596 356 4229ft 0kts
24-Apr-18 08:17 40.776494 -111.958596 356 4229ft 0kts
24-Apr-18 08:18 40.776494 -111.958596 356 4229ft 0kts
24-Apr-18 08:19 40.776494 -111.958596 356 4229ft 0kts
24-Apr-18 08:20 40.776494 -111.958596 356 4229ft 0kts
24-Apr-18 08:21 40.776494 -111.958596 356 4229ft 0kts
24-Apr-18 08:22 40.776494 -111.958596 356 4229ft 0kts

Navigation Log

Ident Type
Flight plan parsing failed, navigation log unavailable